Time;durP1;ratioP1;P1;durP2;ratioP2;P2;SDS_P1;SDS_P2;PMS_P1;PMS_P2;Temp;Humidity;BMP_temperature;BMP_pressure;BME280_temperature;BME280_humidity;BME280_pressure;Samples;Min_cycle;Max_cycle;Signal;HPM_P1;HPM_P2
2021/12/14 00:01:38;;;;;;;26.23;19.67;;;8.80;58.20;;;;;;6214725;28;20251;-60
2021/12/14 00:04:42;;;;;;;29.43;19.63;;;8.70;58.90;;;;;;6213303;28;20409;-59
2021/12/14 00:07:45;;;;;;;26.80;20.20;;;8.70;58.30;;;;;;6221901;28;20249;-59
2021/12/14 00:11:12;;;;;;;26.00;20.13;;;8.70;58.60;;;;;;6237893;28;20826;-61
2021/12/14 00:15:02;;;;;;;26.70;20.03;;;8.70;58.30;;;;;;6237857;28;20312;-59
2021/12/14 00:17:54;;;;;;;24.20;18.97;;;8.70;58.90;;;;;;6227489;28;20242;-59
2021/12/14 00:21:00;;;;;;;22.13;17.90;;;8.70;58.30;;;;;;6239253;28;20610;-59
2021/12/14 00:24:11;;;;;;;25.20;18.37;;;8.80;56.60;;;;;;6226462;28;20401;-59
2021/12/14 00:27:18;;;;;;;28.63;19.43;;;8.80;56.20;;;;;;6210478;28;20243;-59
2021/12/14 00:30:21;;;;;;;24.10;18.87;;;8.70;55.90;;;;;;6221778;28;20313;-59
2021/12/14 00:33:31;;;;;;;26.30;19.27;;;8.70;56.70;;;;;;6237651;28;20312;-59
2021/12/14 00:36:36;;;;;;;24.83;18.77;;;8.70;57.20;;;;;;6237821;28;20242;-60
2021/12/14 00:39:39;;;;;;;22.77;18.73;;;8.60;56.10;;;;;;6226781;28;20231;-59
2021/12/14 00:42:44;;;;;;;23.03;19.57;;;8.60;56.70;;;;;;6213150;28;20374;-60
2021/12/14 00:45:48;;;;;;;25.80;18.93;;;8.70;55.40;;;;;;6212787;28;20269;-60
2021/12/14 00:48:51;;;;;;;24.93;19.37;;;8.70;55.60;;;;;;6228626;28;20354;-59
2021/12/14 00:51:55;;;;;;;28.63;20.07;;;8.60;55.60;;;;;;6237509;28;20244;-59
2021/12/14 00:54:57;;;;;;;25.03;19.87;;;8.60;56.00;;;;;;6212185;28;20743;-60
2021/12/14 00:58:02;;;;;;;25.10;19.63;;;8.60;55.90;;;;;;6217035;28;20774;-60
2021/12/14 01:01:08;;;;;;;23.30;19.17;;;8.60;55.80;;;;;;6220033;28;20609;-59
2021/12/14 01:04:15;;;;;;;23.00;18.50;;;8.70;54.80;;;;;;6233881;28;20271;-58
2021/12/14 01:07:20;;;;;;;26.37;18.30;;;8.60;54.90;;;;;;6219721;28;20277;-58
2021/12/14 01:10:26;;;;;;;24.50;18.10;;;8.60;54.10;;;;;;6237297;28;20854;-59
2021/12/14 01:13:35;;;;;;;23.57;18.53;;;8.70;53.10;;;;;;6237952;28;20325;-59
2021/12/14 01:16:51;;;;;;;22.13;18.40;;;8.70;52.60;;;;;;6236882;28;20239;-59
2021/12/14 01:19:59;;;;;;;22.53;18.87;;;8.70;52.60;;;;;;6209812;28;20323;-60
2021/12/14 01:23:13;;;;;;;23.57;19.07;;;8.60;52.80;;;;;;6213788;28;20270;-59
2021/12/14 01:26:19;;;;;;;25.47;18.93;;;8.60;52.50;;;;;;6212100;28;20249;-59
2021/12/14 01:29:23;;;;;;;23.83;19.37;;;8.60;53.10;;;;;;6213558;28;20401;-59
2021/12/14 01:32:29;;;;;;;23.87;18.47;;;8.50;53.80;;;;;;6218865;28;20325;-58
2021/12/14 01:35:35;;;;;;;24.67;18.57;;;8.50;53.10;;;;;;6235763;28;20245;-59
2021/12/14 01:38:47;;;;;;;24.03;19.60;;;8.60;52.50;;;;;;6236595;28;20250;-58
2021/12/14 01:41:56;;;;;;;21.97;18.57;;;8.50;52.50;;;;;;6237283;28;20293;-60
2021/12/14 01:45:05;;;;;;;27.93;19.60;;;8.50;52.50;;;;;;6236745;28;20472;-59
2021/12/14 01:48:08;;;;;;;22.43;18.57;;;8.50;53.00;;;;;;6232186;28;20227;-58
2021/12/14 01:51:13;;;;;;;24.53;18.10;;;8.50;52.40;;;;;;6237307;28;20359;-59
2021/12/14 01:54:20;;;;;;;21.30;18.17;;;8.50;52.40;;;;;;6217878;28;20620;-60
2021/12/14 01:57:29;;;;;;;21.53;17.43;;;8.50;52.40;;;;;;6217020;28;20733;-58
2021/12/14 02:00:37;;;;;;;19.73;17.33;;;8.50;50.30;;;;;;6216961;28;20306;-60
2021/12/14 02:03:43;;;;;;;21.60;16.43;;;8.50;49.30;;;;;;6216509;28;20732;-59
2021/12/14 02:06:56;;;;;;;18.37;16.13;;;8.50;48.80;;;;;;6217040;28;20245;-60
2021/12/14 02:10:02;;;;;;;20.87;16.10;;;8.50;49.30;;;;;;6239887;28;20373;-59
2021/12/14 02:13:06;;;;;;;19.70;16.77;;;8.50;49.80;;;;;;6241485;28;20329;-59
2021/12/14 02:16:13;;;;;;;20.20;16.63;;;8.50;48.60;;;;;;6231115;28;20243;-59
2021/12/14 02:19:29;;;;;;;19.60;16.20;;;8.50;49.40;;;;;;6238447;28;20926;-58
2021/12/14 02:22:33;;;;;;;18.53;16.53;;;8.50;49.50;;;;;;6235704;28;20237;-59
2021/12/14 02:25:36;;;;;;;18.40;15.67;;;8.50;49.20;;;;;;6217133;28;20620;-59
2021/12/14 02:28:40;;;;;;;19.50;15.63;;;8.40;49.30;;;;;;6222321;28;20239;-60
2021/12/14 02:31:43;;;;;;;18.87;16.87;;;8.50;47.70;;;;;;6218754;28;20287;-60
2021/12/14 02:34:50;;;;;;;19.17;16.20;;;8.50;47.80;;;;;;6240987;28;20325;-60
2021/12/14 02:37:57;;;;;;;17.10;15.17;;;8.50;47.20;;;;;;6242197;28;20321;-59
2021/12/14 02:41:05;;;;;;;18.23;15.70;;;8.40;47.00;;;;;;6220259;28;20249;-59
2021/12/14 02:44:10;;;;;;;19.03;14.33;;;8.50;45.30;;;;;;6217101;28;20227;-59
2021/12/14 02:47:16;;;;;;;16.90;14.67;;;8.50;43.60;;;;;;6224834;28;20238;-59
2021/12/14 02:50:21;;;;;;;15.53;13.93;;;8.60;42.60;;;;;;6229252;28;20733;-60
2021/12/14 02:53:25;;;;;;;16.73;14.97;;;8.60;41.80;;;;;;6238609;28;20250;-59
2021/12/14 02:56:30;;;;;;;15.17;13.57;;;8.50;43.10;;;;;;6240518;28;20322;-60
2021/12/14 02:59:37;;;;;;;18.73;15.20;;;8.60;41.90;;;;;;6231720;28;20296;-59
2021/12/14 03:02:40;;;;;;;15.13;13.57;;;8.60;41.80;;;;;;6199744;28;20712;-60
2021/12/14 03:05:46;;;;;;;15.47;13.87;;;8.50;42.00;;;;;;6214990;28;20995;-59
2021/12/14 03:09:07;;;;;;;17.00;14.03;;;8.50;40.90;;;;;;6194010;28;20307;-58
2021/12/14 03:12:14;;;;;;;15.67;14.00;;;8.50;40.40;;;;;;6190433;28;20232;-59
2021/12/14 03:15:20;;;;;;;15.83;14.20;;;8.50;40.40;;;;;;6186087;28;20776;-59
2021/12/14 03:18:26;;;;;;;15.77;13.57;;;8.50;41.40;;;;;;6209692;28;20603;-59
2021/12/14 03:21:32;;;;;;;16.20;13.30;;;8.50;41.30;;;;;;6211945;28;20755;-59
2021/12/14 03:24:39;;;;;;;17.73;14.50;;;8.30;42.90;;;;;;6230777;28;20317;-60
2021/12/14 03:27:44;;;;;;;19.07;15.23;;;8.30;42.90;;;;;;6239056;28;20234;-59
2021/12/14 03:31:00;;;;;;;15.20;13.67;;;8.40;43.00;;;;;;6220302;28;20235;-59
2021/12/14 03:34:06;;;;;;;15.67;13.57;;;8.30;43.90;;;;;;6221950;28;20642;-59
2021/12/14 03:37:11;;;;;;;15.10;13.40;;;8.30;43.90;;;;;;6203274;28;20638;-58
2021/12/14 03:40:16;;;;;;;14.33;12.83;;;8.30;43.70;;;;;;6189510;28;20632;-60
2021/12/14 03:43:19;;;;;;;16.17;14.40;;;8.30;41.90;;;;;;6190349;28;20704;-59
2021/12/14 03:46:22;;;;;;;15.10;13.53;;;8.30;42.00;;;;;;6191114;28;20337;-58
2021/12/14 03:49:29;;;;;;;17.30;13.73;;;8.40;40.70;;;;;;6207913;28;20239;-58
2021/12/14 03:52:34;;;;;;;16.00;14.27;;;8.30;42.40;;;;;;6180687;28;20278;-59
2021/12/14 03:55:43;;;;;;;15.90;14.17;;;8.30;42.20;;;;;;6202524;28;20232;-60
2021/12/14 03:58:47;;;;;;;16.67;13.87;;;8.30;41.40;;;;;;6197754;28;20316;-59
2021/12/14 04:01:52;;;;;;;16.97;13.50;;;8.30;42.30;;;;;;6189359;28;20712;-58
2021/12/14 04:05:03;;;;;;;15.63;13.60;;;8.20;42.80;;;;;;6189180;28;20236;-58
2021/12/14 04:08:06;;;;;;;17.93;13.60;;;8.30;40.80;;;;;;6190693;28;20430;-58
2021/12/14 04:11:11;;;;;;;16.23;13.87;;;8.30;41.20;;;;;;6210542;28;20755;-58
2021/12/14 04:14:15;;;;;;;14.97;13.47;;;8.20;41.90;;;;;;6214168;28;20231;-58
2021/12/14 04:17:19;;;;;;;18.50;13.97;;;8.20;41.20;;;;;;6199029;28;20307;-59
2021/12/14 04:20:24;;;;;;;17.27;14.53;;;8.20;42.80;;;;;;6199958;28;20238;-57
2021/12/14 04:23:30;;;;;;;15.17;13.57;;;8.20;39.60;;;;;;6207522;28;20307;-59
2021/12/14 04:26:43;;;;;;;15.57;13.97;;;8.20;40.60;;;;;;6237784;28;20245;-59
2021/12/14 04:29:46;;;;;;;16.23;14.07;;;8.30;37.60;;;;;;6214286;28;20823;-59
2021/12/14 04:32:49;;;;;;;16.43;13.97;;;8.30;38.20;;;;;;6213181;28;20226;-60
2021/12/14 04:35:52;;;;;;;17.93;14.30;;;8.30;38.80;;;;;;6242830;28;25584;-60
2021/12/14 04:39:00;;;;;;;15.97;14.27;;;8.30;36.20;;;;;;6229342;28;20324;-59
2021/12/14 04:52:22;;;;;;;15.80;14.07;;;8.20;38.20;;;;;;6234440;28;20669;-59
2021/12/14 04:55:25;;;;;;;15.13;13.00;;;8.30;37.50;;;;;;6194056;28;20239;-58
2021/12/14 04:58:31;;;;;;;17.13;13.73;;;8.20;37.90;;;;;;6207161;28;20231;-59
2021/12/14 05:01:38;;;;;;;18.47;14.10;;;8.30;39.30;;;;;;6209450;28;20631;-59
2021/12/14 05:04:42;;;;;;;16.87;14.30;;;8.20;39.60;;;;;;6229119;28;20241;-63
2021/12/14 05:09:19;;;;;;;20.80;14.07;;;8.20;38.10;;;;;;6225949;28;20347;-58
2021/12/14 05:11:18;;;;;;;16.53;13.90;;;8.20;37.30;;;;;;6204488;28;20231;-59
2021/12/14 05:14:24;;;;;;;17.37;14.40;;;8.20;36.40;;;;;;6210151;28;20246;-59
2021/12/14 05:17:32;;;;;;;18.10;14.30;;;8.20;36.90;;;;;;6200346;28;20259;-59
2021/12/14 05:20:35;;;;;;;20.37;14.53;;;8.10;38.00;;;;;;6228671;28;20234;-60
2021/12/14 05:23:38;;;;;;;18.03;14.10;;;8.10;38.00;;;;;;6230396;28;20238;-60
2021/12/14 05:26:43;;;;;;;19.43;15.10;;;8.10;38.00;;;;;;6238777;28;20244;-60
2021/12/14 05:29:47;;;;;;;15.70;13.97;;;8.10;39.30;;;;;;6239243;28;20364;-58
2021/12/14 05:32:50;;;;;;;18.13;14.23;;;8.00;40.00;;;;;;6239398;28;20609;-59
2021/12/14 05:35:55;;;;;;;17.53;14.17;;;8.00;40.40;;;;;;6238678;28;20369;-60
2021/12/14 05:39:04;;;;;;;19.03;15.17;;;8.00;41.40;;;;;;6232810;28;20299;-59
2021/12/14 05:45:30;;;;;;;17.97;13.53;;;8.00;41.00;;;;;;6235297;28;20706;-59
2021/12/14 05:48:36;;;;;;;15.33;13.50;;;8.00;41.10;;;;;;6238463;28;20382;-60
2021/12/14 05:51:39;;;;;;;16.60;14.20;;;8.10;37.40;;;;;;6239016;28;20242;-58
2021/12/14 05:54:42;;;;;;;16.50;13.83;;;8.10;37.70;;;;;;6242351;28;20230;-59
2021/12/14 05:57:45;;;;;;;17.03;13.80;;;8.10;38.60;;;;;;6241483;28;20239;-59
2021/12/14 06:00:54;;;;;;;18.27;13.80;;;8.00;37.70;;;;;;6240208;28;20299;-60
2021/12/14 06:03:59;;;;;;;19.20;14.30;;;8.10;38.60;;;;;;6236586;28;20630;-61
2021/12/14 06:07:04;;;;;;;15.50;13.27;;;8.00;38.10;;;;;;6232932;28;20711;-60
2021/12/14 06:10:09;;;;;;;18.43;14.60;;;8.10;36.40;;;;;;6237216;28;20302;-59
2021/12/14 06:13:11;;;;;;;16.67;13.53;;;8.20;36.30;;;;;;6238502;28;20826;-58
2021/12/14 06:16:24;;;;;;;15.47;13.23;;;8.00;36.10;;;;;;6239006;28;20246;-59
2021/12/14 06:19:30;;;;;;;18.43;14.00;;;8.10;35.00;;;;;;6245196;28;20264;-59
2021/12/14 06:22:34;;;;;;;16.30;13.07;;;8.00;34.70;;;;;;6241250;28;20735;-58
2021/12/14 06:25:37;;;;;;;14.77;13.13;;;8.10;35.70;;;;;;6241183;28;20253;-59
2021/12/14 06:28:40;;;;;;;17.23;13.63;;;8.10;33.10;;;;;;6236630;28;20413;-61
2021/12/14 06:31:44;;;;;;;18.97;13.10;;;8.10;32.40;;;;;;6238255;28;20404;-57
2021/12/14 06:34:50;;;;;;;14.53;12.93;;;8.10;32.30;;;;;;6239674;28;20280;-60
2021/12/14 06:38:25;;;;;;;20.83;14.13;;;8.10;33.10;;;;;;6242380;28;20385;-58
2021/12/14 06:41:27;;;;;;;16.23;12.67;;;8.00;34.70;;;;;;6239685;28;20227;-59
2021/12/14 06:44:30;;;;;;;16.27;13.17;;;8.00;35.20;;;;;;6247382;28;20261;-58
2021/12/14 06:47:34;;;;;;;14.33;12.90;;;8.00;35.20;;;;;;6231362;28;20854;-60
2021/12/14 06:50:43;;;;;;;19.10;13.33;;;7.80;34.30;;;;;;6234836;28;20239;-58
2021/12/14 06:53:49;;;;;;;14.97;13.40;;;8.00;34.30;;;;;;6233993;28;20255;-61
2021/12/14 06:56:55;;;;;;;15.73;13.23;;;8.00;33.10;;;;;;6241026;28;20239;-59
2021/12/14 07:00:08;;;;;;;16.03;13.17;;;8.00;33.10;;;;;;6246349;28;20238;-60
2021/12/14 07:03:13;;;;;;;18.73;13.67;;;8.00;34.10;;;;;;6239817;28;20312;-60
2021/12/14 07:06:24;;;;;;;22.03;13.43;;;8.00;35.30;;;;;;6242208;28;20247;-60
2021/12/14 07:09:29;;;;;;;14.27;12.77;;;8.00;34.50;;;;;;6219250;28;20607;-59
2021/12/14 07:12:35;;;;;;;16.17;12.80;;;8.00;35.50;;;;;;6243829;28;20322;-61
2021/12/14 07:15:38;;;;;;;14.33;12.57;;;8.00;34.70;;;;;;6240013;28;20718;-59
2021/12/14 07:18:42;;;;;;;15.83;13.17;;;8.00;34.90;;;;;;6241159;28;20288;-61
2021/12/14 07:21:49;;;;;;;14.30;12.80;;;8.00;34.40;;;;;;6243081;28;20243;-59
2021/12/14 07:25:00;;;;;;;14.53;13.17;;;8.00;33.10;;;;;;6244222;28;20342;-60
2021/12/14 07:28:08;;;;;;;13.80;12.23;;;8.00;33.50;;;;;;6227317;28;20720;-59
2021/12/14 07:31:15;;;;;;;14.50;13.10;;;8.00;34.30;;;;;;6242430;28;20245;-59
2021/12/14 07:34:22;;;;;;;15.60;12.80;;;8.00;34.40;;;;;;6242456;28;20243;-61
2021/12/14 07:37:35;;;;;;;15.97;13.33;;;7.90;35.40;;;;;;6245350;28;20314;-60
2021/12/14 07:40:41;;;;;;;16.70;13.20;;;7.90;37.00;;;;;;6236586;28;20267;-58
2021/12/14 07:43:49;;;;;;;14.70;12.67;;;7.90;37.20;;;;;;6226733;28;20408;-59
2021/12/14 07:46:54;;;;;;;16.60;13.27;;;7.90;37.00;;;;;;6228096;28;20619;-60
2021/12/14 07:49:59;;;;;;;18.30;13.83;;;7.90;36.70;;;;;;6241854;28;20595;-58
2021/12/14 07:53:02;;;;;;;15.63;13.27;;;7.90;36.90;;;;;;6238609;28;20234;-60
2021/12/14 07:56:05;;;;;;;15.10;13.33;;;7.80;37.70;;;;;;6239989;28;20699;-59
2021/12/14 07:59:27;;;;;;;15.97;13.63;;;7.80;37.70;;;;;;6231912;28;20746;-60
2021/12/14 08:02:32;;;;;;;13.77;11.67;;;7.80;38.40;;;;;;6228544;28;20869;-58
2021/12/14 08:05:40;;;;;;;13.50;12.13;;;7.90;37.80;;;;;;6235558;28;20238;-59
2021/12/14 08:08:48;;;;;;;14.57;13.10;;;7.90;37.50;;;;;;6234112;28;20231;-60
2021/12/14 08:11:52;;;;;;;15.17;13.43;;;7.90;35.20;;;;;;6226025;28;20773;-59
2021/12/14 08:15:06;;;;;;;15.37;12.83;;;7.90;35.60;;;;;;6236438;28;20923;-59
2021/12/14 08:18:13;;;;;;;14.10;12.70;;;8.00;34.70;;;;;;6231450;28;20265;-58
2021/12/14 08:21:20;;;;;;;18.13;14.10;;;8.00;34.50;;;;;;6232394;28;20280;-60
2021/12/14 08:24:23;;;;;;;15.33;12.87;;;8.00;35.10;;;;;;6241367;28;20352;-59
2021/12/14 08:27:29;;;;;;;14.07;12.60;;;8.00;34.40;;;;;;6242437;28;20248;-60
2021/12/14 08:30:33;;;;;;;13.87;12.47;;;8.00;34.10;;;;;;6242785;28;20723;-59
2021/12/14 08:33:36;;;;;;;17.90;14.07;;;8.10;33.10;;;;;;6229359;28;20733;-60
2021/12/14 08:36:43;;;;;;;15.30;13.70;;;8.10;33.10;;;;;;6231914;28;20238;-60
2021/12/14 08:39:49;;;;;;;15.60;12.93;;;8.00;33.10;;;;;;6243104;28;20447;-60
2021/12/14 08:43:02;;;;;;;15.83;13.00;;;8.00;33.60;;;;;;6236163;28;20238;-59
2021/12/14 08:46:09;;;;;;;14.13;12.70;;;8.00;33.00;;;;;;6230802;28;20234;-60
2021/12/14 08:49:15;;;;;;;13.63;12.10;;;8.00;33.10;;;;;;6232382;28;20741;-59
2021/12/14 08:52:19;;;;;;;14.43;13.03;;;8.00;30.90;;;;;;6236825;28;20238;-60
2021/12/14 08:55:25;;;;;;;14.23;12.73;;;8.00;30.50;;;;;;6237484;28;20480;-60
2021/12/14 08:58:29;;;;;;;15.00;13.43;;;8.00;31.40;;;;;;6234180;28;20238;-58
2021/12/14 09:01:33;;;;;;;15.50;13.67;;;8.00;30.90;;;;;;6236797;28;20303;-59
2021/12/14 09:04:39;;;;;;;15.53;13.37;;;8.00;31.80;;;;;;6237614;28;20234;-60
2021/12/14 09:07:44;;;;;;;15.50;13.27;;;8.00;30.80;;;;;;6224388;28;20373;-58
2021/12/14 09:10:50;;;;;;;14.27;12.87;;;8.10;30.60;;;;;;6227831;28;20333;-59
2021/12/14 09:13:53;;;;;;;14.60;13.20;;;8.10;29.20;;;;;;6208251;28;20794;-59
2021/12/14 09:16:58;;;;;;;16.07;13.00;;;8.10;29.30;;;;;;6242874;28;20691;-60
2021/12/14 09:20:06;;;;;;;14.10;12.70;;;8.20;28.90;;;;;;6240836;28;20329;-59
2021/12/14 09:23:14;;;;;;;16.57;13.00;;;8.20;28.20;;;;;;6232654;28;20249;-60
2021/12/14 09:26:20;;;;;;;15.07;12.70;;;8.40;27.60;;;;;;6234734;28;20299;-60
2021/12/14 09:29:25;;;;;;;15.13;13.60;;;8.30;27.10;;;;;;6235589;28;20237;-59
2021/12/14 09:32:29;;;;;;;14.50;13.03;;;8.40;25.10;;;;;;6222189;28;20318;-57
2021/12/14 09:35:35;;;;;;;14.40;12.90;;;8.30;25.00;;;;;;6234029;28;20309;-61
2021/12/14 09:38:42;;;;;;;14.93;12.60;;;8.30;25.80;;;;;;6220919;28;20240;-60
2021/12/14 09:41:47;;;;;;;17.17;13.60;;;8.30;25.80;;;;;;6235661;28;20223;-61
2021/12/14 09:44:52;;;;;;;14.40;13.00;;;8.30;25.40;;;;;;6235209;28;20308;-59
2021/12/14 09:47:55;;;;;;;13.83;12.60;;;8.30;25.60;;;;;;6231477;28;20247;-60
2021/12/14 09:51:03;;;;;;;14.93;12.80;;;8.30;25.00;;;;;;6243310;28;20234;-59
2021/12/14 09:54:11;;;;;;;13.90;12.63;;;8.20;25.60;;;;;;6240560;28;20243;-58
2021/12/14 09:57:22;;;;;;;14.33;12.93;;;8.20;25.00;;;;;;6221662;28;20425;-61
2021/12/14 10:00:28;;;;;;;13.70;12.27;;;8.20;24.60;;;;;;6226417;28;20350;-60
2021/12/14 10:03:31;;;;;;;17.00;13.43;;;8.60;24.70;;;;;;6219230;28;20240;-59
2021/12/14 10:06:34;;;;;;;14.43;12.93;;;8.30;24.20;;;;;;6228661;28;20267;-60
2021/12/14 10:09:43;;;;;;;13.33;12.13;;;8.20;24.90;;;;;;6230118;28;20756;-59
2021/12/14 10:12:53;;;;;;;14.40;13.00;;;8.20;24.20;;;;;;6232264;28;20318;-60
2021/12/14 10:15:59;;;;;;;14.10;12.53;;;8.20;24.50;;;;;;6223501;28;20242;-59
2021/12/14 10:19:05;;;;;;;14.37;12.83;;;8.20;23.70;;;;;;6232630;28;20227;-58
2021/12/14 10:22:11;;;;;;;14.10;12.90;;;8.30;24.30;;;;;;6242213;28;20280;-59
2021/12/14 10:25:19;;;;;;;14.83;12.13;;;8.30;23.80;;;;;;6239566;28;20227;-60
2021/12/14 10:28:25;;;;;;;15.57;13.57;;;8.30;24.40;;;;;;6238085;28;20695;-60
2021/12/14 10:31:32;;;;;;;16.43;14.73;;;8.30;24.30;;;;;;6236358;28;20245;-61
2021/12/14 10:34:40;;;;;;;15.53;14.13;;;8.40;24.00;;;;;;6234839;28;20239;-60
2021/12/14 10:37:54;;;;;;;15.60;13.83;;;8.40;24.10;;;;;;6211122;28;20381;-58
2021/12/14 10:44:31;;;;;;;14.70;13.20;;;8.40;22.30;;;;;;6230488;28;20281;-59
2021/12/14 10:47:35;;;;;;;15.63;14.13;;;8.40;22.70;;;;;;6227181;28;20309;-60
2021/12/14 10:50:39;;;;;;;14.97;13.33;;;8.50;21.90;;;;;;6237193;28;20238;-61
2021/12/14 10:53:45;;;;;;;18.47;14.13;;;8.60;19.50;;;;;;6230631;28;20364;-59
2021/12/14 10:57:12;;;;;;;15.73;14.03;;;8.70;19.30;;;;;;6235011;28;20304;-58
2021/12/14 11:00:29;;;;;;;15.17;13.57;;;8.60;19.50;;;;;;6236868;28;20227;-60
2021/12/14 11:03:36;;;;;;;16.60;14.43;;;8.60;20.40;;;;;;6223801;28;20234;-60
2021/12/14 11:06:43;;;;;;;16.13;14.10;;;8.60;20.50;;;;;;6220197;28;20250;-58
2021/12/14 11:09:49;;;;;;;16.27;14.70;;;8.70;20.20;;;;;;6227389;28;20246;-59
2021/12/14 11:12:57;;;;;;;15.20;13.60;;;8.80;16.80;;;;;;6227885;28;20254;-59
2021/12/14 11:16:00;;;;;;;14.57;13.17;;;8.80;17.30;;;;;;6237110;28;20250;-61
2021/12/14 11:19:05;;;;;;;14.23;12.77;;;8.80;14.10;;;;;;6238730;28;20257;-59
2021/12/14 11:22:13;;;;;;;14.90;13.40;;;8.80;14.60;;;;;;6243666;28;20230;-60
2021/12/14 11:25:30;;;;;;;14.90;13.50;;;8.90;14.60;;;;;;6232903;28;20945;-61
2021/12/14 11:28:37;;;;;;;13.63;12.33;;;8.80;14.20;;;;;;6230501;28;20284;-58
2021/12/14 11:31:46;;;;;;;13.80;12.47;;;8.80;12.30;;;;;;6232944;28;20428;-60
2021/12/14 11:34:50;;;;;;;13.83;12.53;;;8.80;14.30;;;;;;6235096;28;20289;-59
2021/12/14 11:37:55;;;;;;;14.20;12.87;;;8.80;12.00;;;;;;6236780;28;20333;-59
2021/12/14 11:40:59;;;;;;;13.80;12.33;;;8.80;12.70;;;;;;6234246;28;20240;-57
2021/12/14 11:44:09;;;;;;;14.37;12.87;;;8.90;11.50;;;;;;6234683;28;20388;-59
2021/12/14 11:47:41;;;;;;;13.77;12.47;;;8.90;11.80;;;;;;6230960;28;20707;-60
2021/12/14 11:50:46;;;;;;;13.57;12.37;;;8.90;11.70;;;;;;6234442;28;20300;-62
2021/12/14 11:53:51;;;;;;;13.27;12.03;;;8.90;12.40;;;;;;6239328;28;20866;-60
2021/12/14 11:56:54;;;;;;;12.67;11.47;;;9.00;11.60;;;;;;6236090;28;20254;-60
2021/12/14 12:00:04;;;;;;;13.43;12.20;;;9.00;11.80;;;;;;6237126;28;20238;-60
2021/12/14 12:03:37;;;;;;;13.23;12.03;;;9.00;10.60;;;;;;6239948;28;20231;-60
2021/12/14 12:09:28;;;;;;;13.60;12.30;;;9.10;11.80;;;;;;6223332;28;20259;-60
2021/12/14 12:10:09;;;;;;;13.70;12.33;;;9.00;10.60;;;;;;6240504;28;20353;-59
2021/12/14 12:13:12;;;;;;;13.90;12.60;;;9.00;9.50;;;;;;6240878;28;20243;-58
2021/12/14 12:16:19;;;;;;;12.70;11.53;;;9.10;8.40;;;;;;6225069;28;20276;-60
2021/12/14 12:19:26;;;;;;;13.47;12.17;;;9.20;8.80;;;;;;6230654;28;20226;-60
2021/12/14 12:22:33;;;;;;;12.57;11.47;;;9.20;6.70;;;;;;6208038;28;20325;-58
2021/12/14 12:25:39;;;;;;;13.27;11.97;;;9.30;7.00;;;;;;6225516;28;20241;-57
2021/12/14 12:28:46;;;;;;;13.57;12.30;;;9.20;7.40;;;;;;6229460;28;20632;-59
2021/12/14 12:31:58;;;;;;;13.03;11.83;;;9.30;8.20;;;;;;6227140;28;20682;-59
2021/12/14 12:35:02;;;;;;;15.13;12.03;;;9.20;7.20;;;;;;6236739;28;20306;-58
2021/12/14 12:38:19;;;;;;;13.13;11.80;;;9.20;7.50;;;;;;6232457;28;20739;-58
2021/12/14 12:41:29;;;;;;;15.33;12.90;;;9.20;8.60;;;;;;6234973;28;20309;-59
2021/12/14 12:44:35;;;;;;;13.77;12.47;;;9.30;7.50;;;;;;6241445;28;20230;-59
2021/12/14 12:47:39;;;;;;;13.00;11.80;;;9.30;7.60;;;;;;6239244;28;20315;-59
2021/12/14 12:50:42;;;;;;;13.03;11.73;;;9.20;7.70;;;;;;6228501;28;20678;-57
2021/12/14 12:53:45;;;;;;;13.77;12.43;;;9.20;8.30;;;;;;6238681;28;20306;-59
2021/12/14 12:57:08;;;;;;;12.90;11.80;;;9.20;8.60;;;;;;6238227;28;20239;-59
2021/12/14 13:00:21;;;;;;;16.10;12.53;;;9.20;8.80;;;;;;6238569;28;20230;-59
2021/12/14 13:03:28;;;;;;;13.40;12.00;;;9.20;8.80;;;;;;6231981;28;20296;-59
2021/12/14 13:06:30;;;;;;;14.33;12.83;;;9.20;9.00;;;;;;6233249;28;20239;-59
2021/12/14 13:10:08;;;;;;;13.13;11.90;;;9.20;8.80;;;;;;6235682;28;20246;-57
2021/12/14 13:13:14;;;;;;;12.93;11.63;;;9.20;9.70;;;;;;6223563;28;20241;-59
2021/12/14 13:16:20;;;;;;;18.73;12.70;;;9.10;9.60;;;;;;6232062;28;20317;-59
2021/12/14 13:19:28;;;;;;;13.70;12.50;;;9.10;10.50;;;;;;6235390;28;20454;-58
2021/12/14 13:22:31;;;;;;;14.23;12.83;;;9.00;11.40;;;;;;6231621;28;20330;-58
2021/12/14 13:25:38;;;;;;;12.57;11.43;;;9.00;11.60;;;;;;6241473;28;20238;-60
2021/12/14 13:28:41;;;;;;;14.27;12.40;;;9.00;11.10;;;;;;6225728;28;20409;-60
2021/12/14 13:31:48;;;;;;;14.70;12.33;;;9.10;11.50;;;;;;6227143;28;20308;-58
2021/12/14 13:35:15;;;;;;;14.50;13.07;;;9.00;12.80;;;;;;6236863;28;20258;-60
2021/12/14 13:38:18;;;;;;;13.20;11.90;;;9.00;13.50;;;;;;6230587;28;20235;-61
2021/12/14 13:41:41;;;;;;;13.33;12.07;;;9.00;15.20;;;;;;6218465;28;20867;-58
2021/12/14 13:44:50;;;;;;;13.70;12.30;;;9.00;17.60;;;;;;6228203;28;20377;-60
2021/12/14 13:47:54;;;;;;;15.03;13.20;;;8.90;21.80;;;;;;6251012;28;20380;-59
2021/12/14 13:51:01;;;;;;;14.50;13.00;;;8.90;25.40;;;;;;6242423;28;20334;-58
2021/12/14 13:54:04;;;;;;;14.50;13.00;;;8.80;31.20;;;;;;6229469;28;20661;-57
2021/12/14 13:57:08;;;;;;;15.70;14.00;;;8.70;33.90;;;;;;6233793;28;20236;-58
2021/12/14 14:00:36;;;;;;;16.00;13.60;;;8.60;37.80;;;;;;6231077;28;20245;-58
2021/12/14 14:03:42;;;;;;;15.37;13.70;;;8.40;42.30;;;;;;6243305;28;20251;-61
2021/12/14 14:06:45;;;;;;;15.33;13.70;;;8.50;44.00;;;;;;6232379;28;20343;-58
2021/12/14 14:09:49;;;;;;;15.87;14.17;;;8.30;46.70;;;;;;6229505;28;20322;-61
2021/12/14 14:12:57;;;;;;;17.00;15.30;;;8.30;48.20;;;;;;6235190;28;20317;-61
2021/12/14 14:16:02;;;;;;;17.40;14.67;;;8.30;49.70;;;;;;6242617;28;20754;-59
2021/12/14 14:19:09;;;;;;;15.93;14.23;;;8.30;50.00;;;;;;6231331;28;20235;-59
2021/12/14 14:22:15;;;;;;;17.67;14.57;;;8.20;50.60;;;;;;6237762;28;20308;-58
2021/12/14 14:25:21;;;;;;;18.40;14.97;;;8.20;51.40;;;;;;6237842;28;20296;-59
2021/12/14 14:28:37;;;;;;;16.17;14.47;;;8.40;52.00;;;;;;6243754;28;20261;-58
2021/12/14 14:31:46;;;;;;;17.70;13.87;;;8.20;52.20;;;;;;6234758;28;20281;-60
2021/12/14 14:34:54;;;;;;;14.73;13.33;;;8.10;53.00;;;;;;6232972;28;20250;-59
2021/12/14 14:37:58;;;;;;;15.90;14.23;;;8.10;53.50;;;;;;6234641;28;20235;-59
2021/12/14 14:41:22;;;;;;;17.87;14.63;;;8.20;54.10;;;;;;6234841;28;20896;-60
2021/12/14 14:44:30;;;;;;;16.23;14.30;;;8.10;54.70;;;;;;6240443;28;20238;-60
2021/12/14 14:47:36;;;;;;;19.17;16.03;;;8.10;55.10;;;;;;6243241;28;20707;-59
2021/12/14 14:50:39;;;;;;;15.43;13.83;;;8.10;55.50;;;;;;6236455;28;20230;-58
2021/12/14 14:53:41;;;;;;;17.83;14.77;;;8.10;56.00;;;;;;6244151;28;20238;-61
2021/12/14 14:56:44;;;;;;;19.73;15.77;;;8.00;56.50;;;;;;6237158;28;20288;-61
2021/12/14 15:00:12;;;;;;;23.57;16.63;;;8.00;57.20;;;;;;6251901;28;20729;-61
2021/12/14 15:03:21;;;;;;;17.70;15.63;;;8.00;57.40;;;;;;6220194;28;20262;-60
2021/12/14 15:06:28;;;;;;;22.30;17.60;;;8.00;57.40;;;;;;6237323;28;20537;-60
2021/12/14 15:09:32;;;;;;;20.47;16.23;;;8.00;57.50;;;;;;6239214;28;20751;-61
2021/12/14 15:12:37;;;;;;;20.90;16.60;;;8.00;57.70;;;;;;6240576;28;20844;-59
2021/12/14 15:15:57;;;;;;;24.83;18.20;;;8.00;57.50;;;;;;6229376;28;20296;-61
2021/12/14 15:19:21;;;;;;;24.20;17.87;;;8.10;58.00;;;;;;6226943;28;20230;-60
2021/12/14 15:22:27;;;;;;;23.83;18.60;;;8.00;58.30;;;;;;6239027;28;20714;-61
2021/12/14 15:25:33;;;;;;;29.17;19.30;;;8.00;57.90;;;;;;6234590;28;20285;-61
2021/12/14 15:28:36;;;;;;;22.67;18.40;;;8.10;57.70;;;;;;6242366;28;20781;-59
2021/12/14 15:31:40;;;;;;;27.63;18.97;;;8.00;57.70;;;;;;6247288;28;20311;-60
2021/12/14 15:34:56;;;;;;;27.37;19.30;;;8.00;57.80;;;;;;6236165;28;20740;-61
2021/12/14 15:38:01;;;;;;;28.03;21.40;;;8.00;57.80;;;;;;6239862;28;20774;-61
2021/12/14 15:41:24;;;;;;;30.00;20.97;;;8.00;58.10;;;;;;6234237;28;20732;-59
2021/12/14 15:44:39;;;;;;;31.90;21.70;;;8.00;58.40;;;;;;6238212;28;20246;-60
2021/12/14 15:48:07;;;;;;;30.20;21.93;;;8.00;58.30;;;;;;6234037;28;20245;-60
2021/12/14 15:51:19;;;;;;;31.17;21.77;;;8.00;58.90;;;;;;6233660;28;20243;-59
2021/12/14 15:54:30;;;;;;;30.43;21.70;;;7.90;58.70;;;;;;6244778;28;20257;-60
2021/12/14 15:57:33;;;;;;;31.97;21.03;;;8.10;58.50;;;;;;6234584;28;20428;-61
2021/12/14 16:00:35;;;;;;;30.33;20.90;;;8.10;58.10;;;;;;6239298;28;20267;-61
2021/12/14 16:03:40;;;;;;;32.80;22.27;;;8.00;58.50;;;;;;6223119;28;20662;-59
2021/12/14 16:06:47;;;;;;;37.20;22.97;;;8.00;58.40;;;;;;6241260;28;20245;-61
2021/12/14 16:09:51;;;;;;;33.97;22.27;;;8.00;58.50;;;;;;6234234;28;20235;-59
2021/12/14 16:16:17;;;;;;;32.60;21.87;;;8.00;58.60;;;;;;6221440;28;20308;-59
2021/12/14 16:19:29;;;;;;;39.10;22.63;;;8.00;58.60;;;;;;6245215;28;20234;-60
2021/12/14 16:22:36;;;;;;;38.87;23.73;;;8.00;58.80;;;;;;6238179;28;20234;-59
2021/12/14 16:25:41;;;;;;;39.80;23.63;;;8.00;58.80;;;;;;6237713;28;20334;-60